sensor_id;sensor_type;location;lat;lon;timestamp;pressure;altitude;pressure_sealevel;temperature;humidity
51261;BME280;61705;46.228;24.812;2022-08-19T00:01:42;97201.03;;;19.11;77.30
51261;BME280;61705;46.228;24.812;2022-08-19T00:04:11;97205.81;;;19.08;77.09
51261;BME280;61705;46.228;24.812;2022-08-19T00:06:40;97204.13;;;18.86;77.95
51261;BME280;61705;46.228;24.812;2022-08-19T00:09:10;97202.25;;;18.77;78.31
51261;BME280;61705;46.228;24.812;2022-08-19T00:11:37;97191.84;;;18.62;78.74
51261;BME280;61705;46.228;24.812;2022-08-19T00:14:05;97198.63;;;18.66;79.07
51261;BME280;61705;46.228;24.812;2022-08-19T00:16:32;97195.25;;;18.64;79.02
51261;BME280;61705;46.228;24.812;2022-08-19T00:18:59;97204.22;;;18.54;79.28
51261;BME280;61705;46.228;24.812;2022-08-19T00:21:27;97196.38;;;18.41;79.52
51261;BME280;61705;46.228;24.812;2022-08-19T00:23:54;97189.69;;;18.35;79.70
51261;BME280;61705;46.228;24.812;2022-08-19T00:26:25;97196.88;;;18.35;79.70
51261;BME280;61705;46.228;24.812;2022-08-19T00:28:52;97203.03;;;18.26;80.03
51261;BME280;61705;46.228;24.812;2022-08-19T00:31:20;97194.47;;;18.32;79.59
51261;BME280;61705;46.228;24.812;2022-08-19T00:33:47;97202.38;;;18.33;79.60
51261;BME280;61705;46.228;24.812;2022-08-19T00:36:16;97201.31;;;18.45;79.38
51261;BME280;61705;46.228;24.812;2022-08-19T00:38:43;97211.06;;;18.46;78.80
51261;BME280;61705;46.228;24.812;2022-08-19T00:41:13;97205.16;;;18.32;79.69
51261;BME280;61705;46.228;24.812;2022-08-19T00:43:41;97215.41;;;18.27;79.95
51261;BME280;61705;46.228;24.812;2022-08-19T00:46:07;97213.91;;;18.34;80.27
51261;BME280;61705;46.228;24.812;2022-08-19T00:48:35;97213.91;;;18.55;79.03
51261;BME280;61705;46.228;24.812;2022-08-19T00:51:04;97215.63;;;18.56;79.04
51261;BME280;61705;46.228;24.812;2022-08-19T00:53:31;97218.75;;;18.61;78.97
51261;BME280;61705;46.228;24.812;2022-08-19T00:55:59;97223.38;;;18.59;79.12
51261;BME280;61705;46.228;24.812;2022-08-19T00:58:30;97215.81;;;18.64;78.99
51261;BME280;61705;46.228;24.812;2022-08-19T01:01:00;97225.72;;;18.52;79.35
51261;BME280;61705;46.228;24.812;2022-08-19T01:03:27;97231.34;;;18.49;79.56
51261;BME280;61705;46.228;24.812;2022-08-19T01:06:14;97221.63;;;18.48;79.65
51261;BME280;61705;46.228;24.812;2022-08-19T01:08:46;97228.28;;;18.54;79.65
51261;BME280;61705;46.228;24.812;2022-08-19T01:11:15;97233.72;;;18.63;79.27
51261;BME280;61705;46.228;24.812;2022-08-19T01:13:43;97242.97;;;18.80;78.45
51261;BME280;61705;46.228;24.812;2022-08-19T01:16:16;97235.00;;;18.69;79.06
51261;BME280;61705;46.228;24.812;2022-08-19T01:18:44;97239.59;;;18.57;79.20
51261;BME280;61705;46.228;24.812;2022-08-19T01:21:24;97232.91;;;18.52;79.47
51261;BME280;61705;46.228;24.812;2022-08-19T01:23:53;97238.09;;;18.32;79.83
51261;BME280;61705;46.228;24.812;2022-08-19T01:26:23;97240.28;;;18.38;79.50
51261;BME280;61705;46.228;24.812;2022-08-19T01:28:54;97233.63;;;18.33;79.58
51261;BME280;61705;46.228;24.812;2022-08-19T01:31:25;97230.25;;;17.98;80.81
51261;BME280;61705;46.228;24.812;2022-08-19T01:33:55;97233.06;;;17.86;81.49
51261;BME280;61705;46.228;24.812;2022-08-19T01:36:36;97237.34;;;17.88;81.52
51261;BME280;61705;46.228;24.812;2022-08-19T01:39:07;97240.47;;;17.93;81.01
51261;BME280;61705;46.228;24.812;2022-08-19T01:41:34;97242.75;;;17.98;80.85
51261;BME280;61705;46.228;24.812;2022-08-19T01:44:02;97249.31;;;18.05;80.29
51261;BME280;61705;46.228;24.812;2022-08-19T01:46:45;97246.00;;;18.13;79.89
51261;BME280;61705;46.228;24.812;2022-08-19T01:49:14;97246.63;;;18.05;79.80
51261;BME280;61705;46.228;24.812;2022-08-19T01:51:41;97235.75;;;17.74;81.29
51261;BME280;61705;46.228;24.812;2022-08-19T01:54:09;97244.88;;;17.72;81.59
51261;BME280;61705;46.228;24.812;2022-08-19T01:56:38;97239.06;;;17.78;81.82
51261;BME280;61705;46.228;24.812;2022-08-19T01:59:11;97242.91;;;17.74;81.92
51261;BME280;61705;46.228;24.812;2022-08-19T02:01:39;97237.69;;;17.72;82.32
51261;BME280;61705;46.228;24.812;2022-08-19T02:04:05;97232.72;;;17.68;82.56
51261;BME280;61705;46.228;24.812;2022-08-19T02:06:32;97242.28;;;17.70;82.48
51261;BME280;61705;46.228;24.812;2022-08-19T02:09:00;97239.63;;;17.70;82.72
51261;BME280;61705;46.228;24.812;2022-08-19T02:11:29;97244.16;;;17.59;83.29
51261;BME280;61705;46.228;24.812;2022-08-19T02:13:59;97239.69;;;17.48;83.69
51261;BME280;61705;46.228;24.812;2022-08-19T02:16:26;97240.31;;;17.40;83.56
51261;BME280;61705;46.228;24.812;2022-08-19T02:18:53;97240.78;;;17.34;83.35
51261;BME280;61705;46.228;24.812;2022-08-19T02:21:22;97247.09;;;17.22;83.51
51261;BME280;61705;46.228;24.812;2022-08-19T02:23:50;97259.22;;;17.15;83.35
51261;BME280;61705;46.228;24.812;2022-08-19T02:26:17;97257.66;;;17.12;82.64
51261;BME280;61705;46.228;24.812;2022-08-19T02:28:45;97258.75;;;17.10;82.80
51261;BME280;61705;46.228;24.812;2022-08-19T02:31:17;97267.00;;;17.18;82.41
51261;BME280;61705;46.228;24.812;2022-08-19T02:33:45;97260.44;;;17.33;81.38
51261;BME280;61705;46.228;24.812;2022-08-19T02:36:14;97268.22;;;17.36;81.33
51261;BME280;61705;46.228;24.812;2022-08-19T02:38:46;97268.47;;;17.44;80.72
51261;BME280;61705;46.228;24.812;2022-08-19T02:41:31;97263.84;;;17.35;80.85
51261;BME280;61705;46.228;24.812;2022-08-19T02:44:01;97270.03;;;17.36;80.91
51261;BME280;61705;46.228;24.812;2022-08-19T02:46:48;97275.03;;;17.18;82.13
51261;BME280;61705;46.228;24.812;2022-08-19T02:49:18;97273.56;;;17.14;82.18
51261;BME280;61705;46.228;24.812;2022-08-19T02:51:45;97272.47;;;17.16;82.16
51261;BME280;61705;46.228;24.812;2022-08-19T02:54:26;97271.22;;;17.09;82.26
51261;BME280;61705;46.228;24.812;2022-08-19T02:57:04;97271.97;;;17.11;82.01
51261;BME280;61705;46.228;24.812;2022-08-19T02:59:32;97267.13;;;17.05;82.14
51261;BME280;61705;46.228;24.812;2022-08-19T03:01:59;97273.91;;;16.87;83.00
51261;BME280;61705;46.228;24.812;2022-08-19T03:04:26;97272.91;;;16.88;83.11
51261;BME280;61705;46.228;24.812;2022-08-19T03:06:54;97281.06;;;16.86;83.18
51261;BME280;61705;46.228;24.812;2022-08-19T03:09:27;97284.25;;;16.67;84.39
51261;BME280;61705;46.228;24.812;2022-08-19T03:11:54;97285.09;;;16.68;84.74
51261;BME280;61705;46.228;24.812;2022-08-19T03:14:20;97278.50;;;16.85;84.39
51261;BME280;61705;46.228;24.812;2022-08-19T03:16:50;97275.25;;;16.92;83.40
51261;BME280;61705;46.228;24.812;2022-08-19T03:19:19;97283.59;;;16.88;83.79
51261;BME280;61705;46.228;24.812;2022-08-19T03:21:47;97286.00;;;16.79;84.18
51261;BME280;61705;46.228;24.812;2022-08-19T03:24:15;97290.09;;;16.72;84.72
51261;BME280;61705;46.228;24.812;2022-08-19T03:26:48;97294.34;;;16.75;84.21
51261;BME280;61705;46.228;24.812;2022-08-19T03:29:16;97290.59;;;16.77;84.36
51261;BME280;61705;46.228;24.812;2022-08-19T03:31:57;97289.53;;;16.80;84.22
51261;BME280;61705;46.228;24.812;2022-08-19T03:34:28;97290.13;;;16.84;83.77
51261;BME280;61705;46.228;24.812;2022-08-19T03:37:10;97297.25;;;16.72;84.10
51261;BME280;61705;46.228;24.812;2022-08-19T03:39:41;97298.09;;;16.72;84.31
51261;BME280;61705;46.228;24.812;2022-08-19T03:42:09;97297.69;;;16.90;83.36
51261;BME280;61705;46.228;24.812;2022-08-19T03:44:56;97298.28;;;16.93;83.24
51261;BME280;61705;46.228;24.812;2022-08-19T03:47:24;97304.31;;;16.84;83.99
51261;BME280;61705;46.228;24.812;2022-08-19T03:49:51;97308.69;;;16.85;83.92
51261;BME280;61705;46.228;24.812;2022-08-19T03:52:18;97308.13;;;16.93;83.92
51261;BME280;61705;46.228;24.812;2022-08-19T03:54:45;97303.78;;;17.03;83.19
51261;BME280;61705;46.228;24.812;2022-08-19T03:57:12;97311.06;;;17.12;82.78
51261;BME280;61705;46.228;24.812;2022-08-19T03:59:39;97308.63;;;17.09;82.77
51261;BME280;61705;46.228;24.812;2022-08-19T04:02:09;97312.25;;;16.97;82.98
51261;BME280;61705;46.228;24.812;2022-08-19T04:04:39;97309.94;;;16.92;83.35
51261;BME280;61705;46.228;24.812;2022-08-19T04:07:07;97313.47;;;16.93;83.50
51261;BME280;61705;46.228;24.812;2022-08-19T04:09:35;97321.47;;;16.93;83.27
51261;BME280;61705;46.228;24.812;2022-08-19T04:12:04;97316.88;;;17.06;82.84
51261;BME280;61705;46.228;24.812;2022-08-19T04:14:32;97314.22;;;17.06;82.67
51261;BME280;61705;46.228;24.812;2022-08-19T04:17:01;97320.28;;;17.08;82.46
51261;BME280;61705;46.228;24.812;2022-08-19T04:19:41;97320.28;;;17.08;82.44
51261;BME280;61705;46.228;24.812;2022-08-19T04:22:19;97308.22;;;17.02;82.86
51261;BME280;61705;46.228;24.812;2022-08-19T04:24:46;97315.41;;;17.02;82.97
51261;BME280;61705;46.228;24.812;2022-08-19T04:27:12;97314.22;;;17.06;82.62
51261;BME280;61705;46.228;24.812;2022-08-19T04:29:40;97311.78;;;17.14;82.68
51261;BME280;61705;46.228;24.812;2022-08-19T04:32:10;97312.53;;;17.16;82.68
51261;BME280;61705;46.228;24.812;2022-08-19T04:34:37;97304.88;;;17.23;82.35
51261;BME280;61705;46.228;24.812;2022-08-19T04:37:25;97302.47;;;17.31;82.49
51261;BME280;61705;46.228;24.812;2022-08-19T04:40:01;97305.50;;;17.38;81.64
51261;BME280;61705;46.228;24.812;2022-08-19T04:42:51;97300.88;;;17.40;82.30
51261;BME280;61705;46.228;24.812;2022-08-19T04:45:23;97292.38;;;17.35;82.31
51261;BME280;61705;46.228;24.812;2022-08-19T04:48:18;97288.72;;;17.36;82.49
51261;BME280;61705;46.228;24.812;2022-08-19T04:51:07;97297.13;;;17.65;81.84
51261;BME280;61705;46.228;24.812;2022-08-19T04:53:36;97297.94;;;17.88;80.67
51261;BME280;61705;46.228;24.812;2022-08-19T04:56:27;97296.38;;;17.85;80.85
51261;BME280;61705;46.228;24.812;2022-08-19T05:03:39;97298.47;;;17.82;81.71
51261;BME280;61705;46.228;24.812;2022-08-19T05:06:09;97300.84;;;17.96;80.92
51261;BME280;61705;46.228;24.812;2022-08-19T05:08:38;97295.13;;;18.00;81.00
51261;BME280;61705;46.228;24.812;2022-08-19T05:13:39;97293.78;;;18.06;80.63
51261;BME280;61705;46.228;24.812;2022-08-19T05:16:07;97292.69;;;18.09;80.95
51261;BME280;61705;46.228;24.812;2022-08-19T05:18:34;97294.81;;;18.26;80.13
51261;BME280;61705;46.228;24.812;2022-08-19T05:21:20;97299.78;;;18.31;80.01
51261;BME280;61705;46.228;24.812;2022-08-19T05:24:06;97306.41;;;18.47;79.53
51261;BME280;61705;46.228;24.812;2022-08-19T05:26:36;97311.00;;;18.57;79.43
51261;BME280;61705;46.228;24.812;2022-08-19T05:29:03;97310.19;;;18.66;78.87
51261;BME280;61705;46.228;24.812;2022-08-19T05:31:31;97312.88;;;18.66;79.17
51261;BME280;61705;46.228;24.812;2022-08-19T05:33:58;97302.16;;;18.77;78.62
51261;BME280;61705;46.228;24.812;2022-08-19T05:36:26;97304.84;;;18.98;77.77
51261;BME280;61705;46.228;24.812;2022-08-19T05:38:53;97312.56;;;18.91;78.20
51261;BME280;61705;46.228;24.812;2022-08-19T05:41:21;97305.03;;;19.06;78.17
51261;BME280;61705;46.228;24.812;2022-08-19T05:44:01;97310.88;;;19.21;77.25
51261;BME280;61705;46.228;24.812;2022-08-19T05:46:29;97315.84;;;19.26;77.24
51261;BME280;61705;46.228;24.812;2022-08-19T05:48:55;97316.88;;;19.34;77.00
51261;BME280;61705;46.228;24.812;2022-08-19T05:51:25;97308.47;;;19.39;76.96
51261;BME280;61705;46.228;24.812;2022-08-19T05:53:54;97310.47;;;19.47;76.69
51261;BME280;61705;46.228;24.812;2022-08-19T05:56:21;97310.50;;;19.56;76.47
51261;BME280;61705;46.228;24.812;2022-08-19T05:58:48;97305.53;;;19.73;75.86
51261;BME280;61705;46.228;24.812;2022-08-19T06:01:17;97308.47;;;19.79;75.73
51261;BME280;61705;46.228;24.812;2022-08-19T06:03:44;97306.53;;;19.81;76.18
51261;BME280;61705;46.228;24.812;2022-08-19T06:06:13;97309.53;;;19.98;75.57
51261;BME280;61705;46.228;24.812;2022-08-19T06:08:39;97306.31;;;20.13;75.08
51261;BME280;61705;46.228;24.812;2022-08-19T06:11:17;97311.59;;;20.34;74.54
51261;BME280;61705;46.228;24.812;2022-08-19T06:13:53;97302.84;;;20.42;74.47
51261;BME280;61705;46.228;24.812;2022-08-19T06:16:26;97309.22;;;20.51;74.25
51261;BME280;61705;46.228;24.812;2022-08-19T06:18:55;97304.84;;;20.59;73.96
51261;BME280;61705;46.228;24.812;2022-08-19T06:21:25;97318.69;;;20.65;73.99
51261;BME280;61705;46.228;24.812;2022-08-19T06:23:54;97312.00;;;20.49;74.82
51261;BME280;61705;46.228;24.812;2022-08-19T06:26:21;97316.44;;;20.60;74.45
51261;BME280;61705;46.228;24.812;2022-08-19T06:28:50;97316.44;;;20.79;73.70
51261;BME280;61705;46.228;24.812;2022-08-19T06:31:20;97318.13;;;20.90;73.01
51261;BME280;61705;46.228;24.812;2022-08-19T06:33:47;97309.34;;;20.98;72.70
51261;BME280;61705;46.228;24.812;2022-08-19T06:36:20;97304.22;;;21.04;72.51
51261;BME280;61705;46.228;24.812;2022-08-19T06:38:51;97302.38;;;21.15;71.89
51261;BME280;61705;46.228;24.812;2022-08-19T06:41:18;97296.72;;;21.18;71.66
51261;BME280;61705;46.228;24.812;2022-08-19T06:43:45;97299.38;;;21.27;71.65
51261;BME280;61705;46.228;24.812;2022-08-19T06:46:15;97301.47;;;21.43;71.19
51261;BME280;61705;46.228;24.812;2022-08-19T06:48:42;97289.69;;;21.54;70.98
51261;BME280;61705;46.228;24.812;2022-08-19T06:51:12;97281.28;;;21.67;70.85
51261;BME280;61705;46.228;24.812;2022-08-19T06:53:45;97281.72;;;21.62;70.70
51261;BME280;61705;46.228;24.812;2022-08-19T06:56:16;97277.25;;;21.81;70.27
51261;BME280;61705;46.228;24.812;2022-08-19T06:58:43;97288.78;;;21.91;70.21
51261;BME280;61705;46.228;24.812;2022-08-19T07:01:10;97278.16;;;21.99;69.93
51261;BME280;61705;46.228;24.812;2022-08-19T07:03:38;97273.25;;;22.12;69.36
51261;BME280;61705;46.228;24.812;2022-08-19T07:06:10;97276.88;;;22.21;69.26
51261;BME280;61705;46.228;24.812;2022-08-19T07:08:59;97272.97;;;22.33;69.32
51261;BME280;61705;46.228;24.812;2022-08-19T07:11:26;97273.16;;;22.50;68.71
51261;BME280;61705;46.228;24.812;2022-08-19T07:13:54;97270.44;;;22.67;68.07
51261;BME280;61705;46.228;24.812;2022-08-19T07:16:21;97275.34;;;22.72;67.69
51261;BME280;61705;46.228;24.812;2022-08-19T07:18:55;97269.66;;;22.75;67.58
51261;BME280;61705;46.228;24.812;2022-08-19T07:21:26;97273.63;;;22.89;66.65
51261;BME280;61705;46.228;24.812;2022-08-19T07:23:59;97271.75;;;23.07;66.21
51261;BME280;61705;46.228;24.812;2022-08-19T07:26:40;97266.88;;;23.29;65.04
51261;BME280;61705;46.228;24.812;2022-08-19T07:29:08;97263.06;;;23.48;64.56
51261;BME280;61705;46.228;24.812;2022-08-19T07:31:42;97261.09;;;23.58;64.12
51261;BME280;61705;46.228;24.812;2022-08-19T07:34:11;97264.31;;;23.61;64.27
51261;BME280;61705;46.228;24.812;2022-08-19T07:36:41;97265.34;;;23.60;64.50
51261;BME280;61705;46.228;24.812;2022-08-19T07:39:29;97259.44;;;23.65;64.21
51261;BME280;61705;46.228;24.812;2022-08-19T07:42:00;97260.38;;;23.74;63.99
51261;BME280;61705;46.228;24.812;2022-08-19T07:44:30;97258.72;;;23.81;64.02
51261;BME280;61705;46.228;24.812;2022-08-19T07:46:57;97254.22;;;23.98;63.58
51261;BME280;61705;46.228;24.812;2022-08-19T07:49:26;97245.59;;;24.02;63.03
51261;BME280;61705;46.228;24.812;2022-08-19T07:52:00;97247.19;;;24.29;62.46
51261;BME280;61705;46.228;24.812;2022-08-19T07:54:30;97247.19;;;24.29;62.56
51261;BME280;61705;46.228;24.812;2022-08-19T07:56:57;97251.25;;;24.25;62.87
51261;BME280;61705;46.228;24.812;2022-08-19T07:59:26;97241.63;;;24.39;62.62
51261;BME280;61705;46.228;24.812;2022-08-19T08:01:53;97246.59;;;24.52;62.38
51261;BME280;61705;46.228;24.812;2022-08-19T08:04:20;97242.03;;;24.52;61.88
51261;BME280;61705;46.228;24.812;2022-08-19T08:07:07;97241.00;;;24.53;61.58
51261;BME280;61705;46.228;24.812;2022-08-19T08:09:57;97244.72;;;24.61;61.61
51261;BME280;61705;46.228;24.812;2022-08-19T08:12:33;97238.47;;;24.76;60.95
51261;BME280;61705;46.228;24.812;2022-08-19T08:15:06;97241.84;;;24.87;60.85
51261;BME280;61705;46.228;24.812;2022-08-19T08:17:38;97240.16;;;24.94;60.38
51261;BME280;61705;46.228;24.812;2022-08-19T08:20:15;97235.56;;;24.94;60.12
51261;BME280;61705;46.228;24.812;2022-08-19T08:22:46;97245.53;;;25.10;59.79
51261;BME280;61705;46.228;24.812;2022-08-19T08:25:34;97244.34;;;25.13;59.03
51261;BME280;61705;46.228;24.812;2022-08-19T08:28:02;97248.44;;;25.17;58.95
51261;BME280;61705;46.228;24.812;2022-08-19T08:30:30;97245.19;;;25.21;58.45
51261;BME280;61705;46.228;24.812;2022-08-19T08:32:59;97244.34;;;25.29;58.44
51261;BME280;61705;46.228;24.812;2022-08-19T08:35:28;97240.44;;;25.32;57.65
51261;BME280;61705;46.228;24.812;2022-08-19T08:37:55;97237.91;;;25.05;58.42
51261;BME280;61705;46.228;24.812;2022-08-19T08:40:43;97237.22;;;25.36;57.54
51261;BME280;61705;46.228;24.812;2022-08-19T08:43:27;97247.97;;;25.61;57.05
51261;BME280;61705;46.228;24.812;2022-08-19T08:46:15;97238.34;;;25.97;55.60
51261;BME280;61705;46.228;24.812;2022-08-19T08:51:51;97242.28;;;25.87;55.25
51261;BME280;61705;46.228;24.812;2022-08-19T08:54:30;97236.03;;;25.86;55.13
51261;BME280;61705;46.228;24.812;2022-08-19T08:57:04;97238.94;;;25.76;55.21
51261;BME280;61705;46.228;24.812;2022-08-19T08:59:36;97242.75;;;25.98;54.57
51261;BME280;61705;46.228;24.812;2022-08-19T09:02:05;97239.91;;;26.46;52.76
51261;BME280;61705;46.228;24.812;2022-08-19T09:04:34;97235.66;;;26.52;52.08
51261;BME280;61705;46.228;24.812;2022-08-19T09:15:40;97226.09;;;26.64;50.80
51261;BME280;61705;46.228;24.812;2022-08-19T09:18:15;97226.09;;;26.64;50.84
51261;BME280;61705;46.228;24.812;2022-08-19T09:20:45;97220.25;;;26.52;50.84
51261;BME280;61705;46.228;24.812;2022-08-19T09:23:13;97211.88;;;26.62;50.53
51261;BME280;61705;46.228;24.812;2022-08-19T09:25:40;97209.94;;;26.70;50.68
51261;BME280;61705;46.228;24.812;2022-08-19T09:28:07;97206.06;;;26.88;50.55
51261;BME280;61705;46.228;24.812;2022-08-19T09:30:51;97202.66;;;26.86;50.29
51261;BME280;61705;46.228;24.812;2022-08-19T09:33:18;97204.03;;;27.05;50.00
51261;BME280;61705;46.228;24.812;2022-08-19T09:35:46;97191.84;;;27.01;49.24
51261;BME280;61705;46.228;24.812;2022-08-19T09:38:20;97197.94;;;27.03;48.19
51261;BME280;61705;46.228;24.812;2022-08-19T09:40:47;97195.41;;;27.01;47.17
51261;BME280;61705;46.228;24.812;2022-08-19T09:43:14;97186.94;;;27.19;46.30
51261;BME280;61705;46.228;24.812;2022-08-19T09:45:58;97196.41;;;27.00;46.94
51261;BME280;61705;46.228;24.812;2022-08-19T09:48:26;97195.91;;;27.20;46.03
51261;BME280;61705;46.228;24.812;2022-08-19T09:50:53;97191.88;;;27.45;45.11
51261;BME280;61705;46.228;24.812;2022-08-19T09:53:20;97192.25;;;27.57;44.90
51261;BME280;61705;46.228;24.812;2022-08-19T09:55:51;97190.41;;;27.43;45.41
51261;BME280;61705;46.228;24.812;2022-08-19T09:58:17;97195.16;;;27.55;44.84
51261;BME280;61705;46.228;24.812;2022-08-19T10:00:50;97184.28;;;27.70;43.47
51261;BME280;61705;46.228;24.812;2022-08-19T10:03:17;97199.16;;;28.04;42.88
51261;BME280;61705;46.228;24.812;2022-08-19T10:05:43;97187.91;;;28.28;43.08
51261;BME280;61705;46.228;24.812;2022-08-19T10:08:25;97189.75;;;28.43;42.63
51261;BME280;61705;46.228;24.812;2022-08-19T10:10:53;97189.19;;;28.32;42.98
51261;BME280;61705;46.228;24.812;2022-08-19T10:13:24;97186.16;;;28.21;43.68
51261;BME280;61705;46.228;24.812;2022-08-19T10:15:54;97184.38;;;28.13;44.28
51261;BME280;61705;46.228;24.812;2022-08-19T10:18:23;97186.22;;;28.27;43.47
51261;BME280;61705;46.228;24.812;2022-08-19T10:20:51;97176.25;;;28.34;43.10
51261;BME280;61705;46.228;24.812;2022-08-19T10:23:21;97176.06;;;28.57;42.52
51261;BME280;61705;46.228;24.812;2022-08-19T10:25:48;97179.44;;;28.60;42.21
51261;BME280;61705;46.228;24.812;2022-08-19T10:28:16;97176.22;;;28.49;42.41
51261;BME280;61705;46.228;24.812;2022-08-19T10:30:45;97167.91;;;28.57;42.80
51261;BME280;61705;46.228;24.812;2022-08-19T10:33:12;97165.84;;;28.60;41.94
51261;BME280;61705;46.228;24.812;2022-08-19T10:35:39;97177.25;;;28.48;42.48
51261;BME280;61705;46.228;24.812;2022-08-19T10:38:22;97175.22;;;28.57;42.12
51261;BME280;61705;46.228;24.812;2022-08-19T10:41:05;97167.91;;;28.57;42.33
51261;BME280;61705;46.228;24.812;2022-08-19T10:43:39;97164.63;;;28.41;40.86
51261;BME280;61705;46.228;24.812;2022-08-19T10:46:14;97158.16;;;28.42;40.55
51261;BME280;61705;46.228;24.812;2022-08-19T10:48:43;97163.31;;;28.58;39.90
51261;BME280;61705;46.228;24.812;2022-08-19T10:51:11;97161.50;;;28.65;40.35
51261;BME280;61705;46.228;24.812;2022-08-19T10:53:58;97153.81;;;28.69;39.87
51261;BME280;61705;46.228;24.812;2022-08-19T10:56:26;97158.47;;;28.81;40.20
51261;BME280;61705;46.228;24.812;2022-08-19T10:59:12;97157.56;;;28.96;39.74
51261;BME280;61705;46.228;24.812;2022-08-19T11:01:41;97151.66;;;28.92;39.84
51261;BME280;61705;46.228;24.812;2022-08-19T11:04:09;97150.94;;;29.46;39.98
51261;BME280;61705;46.228;24.812;2022-08-19T11:06:38;97150.84;;;29.20;40.10
51261;BME280;61705;46.228;24.812;2022-08-19T11:09:05;97143.28;;;29.22;39.26
51261;BME280;61705;46.228;24.812;2022-08-19T11:11:32;97141.09;;;29.39;38.95
51261;BME280;61705;46.228;24.812;2022-08-19T11:14:08;97138.72;;;29.29;39.72
51261;BME280;61705;46.228;24.812;2022-08-19T11:16:37;97141.84;;;29.26;40.22
51261;BME280;61705;46.228;24.812;2022-08-19T11:19:09;97138.91;;;29.21;40.68
51261;BME280;61705;46.228;24.812;2022-08-19T11:21:39;97129.38;;;29.45;40.18
51261;BME280;61705;46.228;24.812;2022-08-19T11:24:10;97132.41;;;29.63;39.65
51261;BME280;61705;46.228;24.812;2022-08-19T11:26:38;97128.84;;;29.63;39.28
51261;BME280;61705;46.228;24.812;2022-08-19T11:29:07;97122.16;;;29.65;39.03
51261;BME280;61705;46.228;24.812;2022-08-19T11:31:40;97131.53;;;29.56;37.64
51261;BME280;61705;46.228;24.812;2022-08-19T11:34:11;97122.47;;;29.42;37.98
51261;BME280;61705;46.228;24.812;2022-08-19T11:36:41;97114.09;;;29.44;38.37
51261;BME280;61705;46.228;24.812;2022-08-19T11:39:10;97110.00;;;29.61;38.85
51261;BME280;61705;46.228;24.812;2022-08-19T11:41:36;97111.56;;;29.90;37.68
51261;BME280;61705;46.228;24.812;2022-08-19T11:44:03;97109.91;;;29.96;37.13
51261;BME280;61705;46.228;24.812;2022-08-19T11:46:31;97108.63;;;29.92;37.85
51261;BME280;61705;46.228;24.812;2022-08-19T11:48:59;97103.63;;;29.95;37.33
51261;BME280;61705;46.228;24.812;2022-08-19T11:51:28;97103.22;;;30.05;37.18
51261;BME280;61705;46.228;24.812;2022-08-19T11:53:56;97100.91;;;30.15;36.76
51261;BME280;61705;46.228;24.812;2022-08-19T11:56:25;97098.59;;;30.12;36.83
51261;BME280;61705;46.228;24.812;2022-08-19T11:58:52;97104.94;;;30.26;36.27
51261;BME280;61705;46.228;24.812;2022-08-19T12:01:21;97090.44;;;30.26;35.94
51261;BME280;61705;46.228;24.812;2022-08-19T12:03:50;97094.88;;;30.33;36.29
51261;BME280;61705;46.228;24.812;2022-08-19T12:06:21;97090.28;;;30.40;36.10
51261;BME280;61705;46.228;24.812;2022-08-19T12:08:52;97083.56;;;30.50;35.81
51261;BME280;61705;46.228;24.812;2022-08-19T12:11:19;97085.19;;;30.90;35.05
51261;BME280;61705;46.228;24.812;2022-08-19T12:13:46;97078.44;;;31.06;34.18
51261;BME280;61705;46.228;24.812;2022-08-19T12:16:20;97079.28;;;31.07;33.93
51261;BME280;61705;46.228;24.812;2022-08-19T12:18:49;97074.63;;;31.14;33.79
51261;BME280;61705;46.228;24.812;2022-08-19T12:21:21;97081.19;;;31.00;33.86
51261;BME280;61705;46.228;24.812;2022-08-19T12:23:51;97075.16;;;30.78;34.27
51261;BME280;61705;46.228;24.812;2022-08-19T12:26:21;97076.41;;;30.88;33.91
51261;BME280;61705;46.228;24.812;2022-08-19T12:28:49;97076.13;;;31.10;34.05
51261;BME280;61705;46.228;24.812;2022-08-19T12:31:16;97070.22;;;31.20;33.70
51261;BME280;61705;46.228;24.812;2022-08-19T12:33:43;97063.94;;;31.19;34.09
51261;BME280;61705;46.228;24.812;2022-08-19T12:36:11;97060.41;;;31.05;33.61
51261;BME280;61705;46.228;24.812;2022-08-19T12:38:40;97061.50;;;30.84;33.85
51261;BME280;61705;46.228;24.812;2022-08-19T12:41:10;97061.63;;;31.16;33.02
51261;BME280;61705;46.228;24.812;2022-08-19T12:43:37;97053.00;;;31.19;33.08
51261;BME280;61705;46.228;24.812;2022-08-19T12:46:07;97059.22;;;31.46;32.95
51261;BME280;61705;46.228;24.812;2022-08-19T12:48:37;97054.97;;;31.95;32.25
51261;BME280;61705;46.228;24.812;2022-08-19T12:51:10;97060.28;;;31.90;32.18
51261;BME280;61705;46.228;24.812;2022-08-19T12:53:39;97060.28;;;31.83;32.64
51261;BME280;61705;46.228;24.812;2022-08-19T12:56:10;97058.72;;;32.01;32.23
51261;BME280;61705;46.228;24.812;2022-08-19T12:58:38;97060.34;;;32.65;31.87
51261;BME280;61705;46.228;24.812;2022-08-19T13:01:17;97057.81;;;32.64;31.79
51261;BME280;61705;46.228;24.812;2022-08-19T13:03:48;97052.75;;;32.86;31.43
51261;BME280;61705;46.228;24.812;2022-08-19T13:06:16;97053.69;;;33.16;30.46
51261;BME280;61705;46.228;24.812;2022-08-19T13:08:45;97049.91;;;33.17;30.65
51261;BME280;61705;46.228;24.812;2022-08-19T13:11:15;97050.16;;;32.91;30.58
51261;BME280;61705;46.228;24.812;2022-08-19T13:13:58;97046.97;;;32.94;30.15
51261;BME280;61705;46.228;24.812;2022-08-19T13:16:26;97048.38;;;33.03;30.42
51261;BME280;61705;46.228;24.812;2022-08-19T13:18:55;97054.06;;;33.38;29.77
51261;BME280;61705;46.228;24.812;2022-08-19T13:21:31;97051.31;;;33.75;29.81
51261;BME280;61705;46.228;24.812;2022-08-19T13:24:02;97053.25;;;34.16;29.62
51261;BME280;61705;46.228;24.812;2022-08-19T13:27:02;97057.44;;;33.03;30.37
51261;BME280;61705;46.228;24.812;2022-08-19T13:29:29;97052.69;;;33.29;30.04